createdAt,value
2018-05-31T00:00:11.986Z,1011.70
2018-05-31T00:01:11.947Z,1011.71
2018-05-31T00:02:11.908Z,1011.70
2018-05-31T00:03:11.868Z,1011.65
2018-05-31T00:04:11.829Z,1011.66
2018-05-31T00:05:11.790Z,1011.66
2018-05-31T00:06:11.751Z,1011.63
2018-05-31T00:07:11.711Z,1011.63
2018-05-31T00:08:11.673Z,1011.62
2018-05-31T00:09:11.634Z,1011.63
2018-05-31T00:10:11.594Z,1011.64
2018-05-31T00:11:11.555Z,1011.58
2018-05-31T00:12:11.517Z,1011.62
2018-05-31T00:13:11.480Z,1011.56
2018-05-31T00:14:11.442Z,1011.60
2018-05-31T00:15:11.403Z,1011.59
2018-05-31T00:16:11.361Z,1011.62
2018-05-31T00:17:11.325Z,1011.60
2018-05-31T00:18:11.285Z,1011.63
2018-05-31T00:19:11.245Z,1011.62
2018-05-31T00:20:11.204Z,1011.59
2018-05-31T00:21:11.167Z,1011.58
2018-05-31T00:22:11.127Z,1011.58
2018-05-31T00:23:11.088Z,1011.57
2018-05-31T00:24:11.048Z,1011.57
2018-05-31T00:25:11.060Z,1011.57
2018-05-31T00:26:10.971Z,1011.61
2018-05-31T00:27:10.931Z,1011.59
2018-05-31T00:28:10.892Z,1011.60
2018-05-31T00:29:10.854Z,1011.61
2018-05-31T00:30:10.818Z,1011.57
2018-05-31T00:31:10.774Z,1011.53
2018-05-31T00:32:10.738Z,1011.56
2018-05-31T00:33:10.697Z,1011.50
2018-05-31T00:34:10.658Z,1011.48
2018-05-31T00:35:10.618Z,1011.50
2018-05-31T00:36:10.580Z,1011.50
2018-05-31T00:37:10.540Z,1011.46
2018-05-31T00:38:10.501Z,1011.46
2018-05-31T00:39:10.462Z,1011.46
2018-05-31T00:40:10.423Z,1011.47
2018-05-31T00:41:10.383Z,1011.46
2018-05-31T00:42:10.345Z,1011.43
2018-05-31T00:43:10.305Z,1011.42
2018-05-31T00:44:10.267Z,1011.43
2018-05-31T00:45:10.227Z,1011.39
2018-05-31T00:46:10.188Z,1011.41
2018-05-31T00:47:10.151Z,1011.38
2018-05-31T00:48:10.110Z,1011.38
2018-05-31T00:49:10.071Z,1011.33
2018-05-31T00:50:10.032Z,1011.31
2018-05-31T00:51:09.994Z,1011.34
2018-05-31T00:52:09.953Z,1011.35
2018-05-31T00:53:09.914Z,1011.31
2018-05-31T00:54:09.876Z,1011.34
2018-05-31T00:55:09.836Z,1011.30
2018-05-31T00:56:09.797Z,1011.30
2018-05-31T00:57:09.758Z,1011.29
2018-05-31T00:58:09.719Z,1011.26
2018-05-31T00:59:09.679Z,1011.25
2018-05-31T01:00:09.640Z,1011.27
2018-05-31T01:01:09.604Z,1011.22
2018-05-31T01:02:09.563Z,1011.23
2018-05-31T01:03:09.522Z,1011.18
2018-05-31T01:04:09.484Z,1011.21
2018-05-31T01:05:09.445Z,1011.16
2018-05-31T01:06:09.405Z,1011.14
2018-05-31T01:07:09.366Z,1011.13
2018-05-31T01:08:09.327Z,1011.16
2018-05-31T01:09:09.288Z,1011.18
2018-05-31T01:10:09.253Z,1011.15
2018-05-31T01:11:09.209Z,1011.12
2018-05-31T01:12:09.174Z,1011.12
2018-05-31T01:13:09.131Z,1011.11
2018-05-31T01:14:09.092Z,1011.12
2018-05-31T01:15:09.052Z,1011.09
2018-05-31T01:16:09.020Z,1011.09
2018-05-31T01:17:08.974Z,1011.11
2018-05-31T01:18:08.935Z,1011.11
2018-05-31T01:19:08.895Z,1011.09
2018-05-31T01:20:08.856Z,1011.06
2018-05-31T01:21:08.817Z,1011.03
2018-05-31T01:22:08.778Z,1011.01
2018-05-31T01:23:08.739Z,1010.98
2018-05-31T01:24:08.700Z,1011.00
2018-05-31T01:25:08.663Z,1011.02
2018-05-31T01:26:08.622Z,1010.97
2018-05-31T01:27:08.582Z,1010.98
2018-05-31T01:28:08.542Z,1010.98
2018-05-31T01:29:08.509Z,1010.98
2018-05-31T01:30:08.474Z,1010.99
2018-05-31T01:31:08.424Z,1010.96
2018-05-31T01:32:08.466Z,1011.00
2018-05-31T01:33:08.346Z,1010.99
2018-05-31T01:34:08.307Z,1011.00
2018-05-31T01:35:08.267Z,1011.00
2018-05-31T01:36:08.236Z,1011.01
2018-05-31T01:37:08.190Z,1010.98
2018-05-31T01:38:08.154Z,1011.00
2018-05-31T01:39:08.110Z,1010.96
2018-05-31T01:40:08.071Z,1010.95
2018-05-31T01:41:08.032Z,1010.94
2018-05-31T01:42:07.993Z,1010.97
2018-05-31T01:43:07.953Z,1010.89
2018-05-31T01:44:07.914Z,1010.91
2018-05-31T01:45:07.874Z,1010.92
2018-05-31T01:46:07.836Z,1010.92
2018-05-31T01:47:07.798Z,1010.93
2018-05-31T01:48:07.764Z,1010.89
2018-05-31T01:49:07.717Z,1010.95
2018-05-31T01:50:07.679Z,1010.93
2018-05-31T01:51:07.639Z,1010.95
2018-05-31T01:52:07.600Z,1010.92
2018-05-31T01:53:07.562Z,1010.92
2018-05-31T01:54:07.521Z,1010.86
2018-05-31T01:55:07.482Z,1010.88
2018-05-31T01:56:07.443Z,1010.87
2018-05-31T01:57:07.406Z,1010.86
2018-05-31T01:58:07.367Z,1010.83
2018-05-31T01:59:07.324Z,1010.84
2018-05-31T02:00:07.286Z,1010.85
2018-05-31T02:01:07.246Z,1010.83
2018-05-31T02:02:07.208Z,1010.79
2018-05-31T02:03:07.167Z,1010.76
2018-05-31T02:04:07.127Z,1010.78
2018-05-31T02:05:07.091Z,1010.78
2018-05-31T02:06:07.050Z,1010.75
2018-05-31T02:07:07.009Z,1010.79
2018-05-31T02:08:06.972Z,1010.80
2018-05-31T02:09:06.932Z,1010.82
2018-05-31T02:10:06.892Z,1010.82
2018-05-31T02:11:06.854Z,1010.78
2018-05-31T02:12:06.813Z,1010.80
2018-05-31T02:13:06.775Z,1010.83
2018-05-31T02:14:06.735Z,1010.82
2018-05-31T02:15:06.695Z,1010.82
2018-05-31T02:16:06.656Z,1010.83
2018-05-31T02:17:06.616Z,1010.83
2018-05-31T02:18:06.582Z,1010.87
2018-05-31T02:19:06.537Z,1010.87
2018-05-31T02:20:06.499Z,1010.88
2018-05-31T02:21:06.459Z,1010.91
2018-05-31T02:22:06.420Z,1010.91
2018-05-31T02:23:06.387Z,1010.94
2018-05-31T02:24:06.341Z,1010.94
2018-05-31T02:25:06.302Z,1010.95
2018-05-31T02:26:06.263Z,1010.95
2018-05-31T02:27:06.230Z,1010.94
2018-05-31T02:28:06.183Z,1010.96
2018-05-31T02:29:06.144Z,1010.97
2018-05-31T02:30:06.105Z,1010.93
2018-05-31T02:31:06.065Z,1010.95
2018-05-31T02:32:06.026Z,1010.96
2018-05-31T02:33:05.987Z,1010.93
2018-05-31T02:34:05.947Z,1010.92
2018-05-31T02:35:05.907Z,1010.93
2018-05-31T02:36:05.875Z,1010.94
2018-05-31T02:37:05.828Z,1010.97
2018-05-31T02:38:05.789Z,1010.98
2018-05-31T02:39:05.748Z,1010.97
2018-05-31T02:40:05.711Z,1011.01
2018-05-31T02:41:05.671Z,1011.01
2018-05-31T02:42:05.632Z,1011.04
2018-05-31T02:43:05.594Z,1011.06
2018-05-31T02:44:05.553Z,1011.03
2018-05-31T02:45:05.518Z,1011.04
2018-05-31T02:46:05.474Z,1011.00
2018-05-31T02:47:05.434Z,1011.01
2018-05-31T02:48:05.395Z,1011.04
2018-05-31T02:49:05.355Z,1011.03
2018-05-31T02:50:05.316Z,1011.03
2018-05-31T02:51:05.276Z,1011.04
2018-05-31T02:52:05.237Z,1011.04
2018-05-31T02:53:05.197Z,1011.04
2018-05-31T02:54:05.159Z,1011.03
2018-05-31T02:55:05.117Z,1011.03
2018-05-31T02:56:05.081Z,1011.04
2018-05-31T02:57:05.043Z,1011.02
2018-05-31T02:58:05.000Z,1011.01
2018-05-31T02:59:04.961Z,1010.99
2018-05-31T03:00:04.921Z,1011.01
2018-05-31T03:01:04.884Z,1010.99
2018-05-31T03:02:04.842Z,1010.99
2018-05-31T03:03:04.802Z,1010.98
2018-05-31T03:04:04.763Z,1011.01
2018-05-31T03:05:04.727Z,1011.01
2018-05-31T03:06:04.684Z,1010.99
2018-05-31T03:07:04.644Z,1011.01
2018-05-31T03:08:04.605Z,1011.06
2018-05-31T03:09:04.567Z,1011.04
2018-05-31T03:10:04.527Z,1011.08
2018-05-31T03:11:04.486Z,1011.03
2018-05-31T03:12:04.449Z,1011.05
2018-05-31T03:13:04.408Z,1011.05
2018-05-31T03:14:04.369Z,1011.02
2018-05-31T03:15:04.328Z,1011.05
2018-05-31T03:16:04.289Z,1011.05
2018-05-31T03:17:04.250Z,1011.07
2018-05-31T03:18:04.211Z,1011.10
2018-05-31T03:19:04.170Z,1011.13
2018-05-31T03:20:04.186Z,1011.10
2018-05-31T03:21:04.092Z,1011.12
2018-05-31T03:22:04.053Z,1011.09
2018-05-31T03:23:04.015Z,1011.11
2018-05-31T03:24:03.973Z,1011.11
2018-05-31T03:25:03.934Z,1011.11
2018-05-31T03:26:03.898Z,1011.11
2018-05-31T03:27:03.854Z,1011.15
2018-05-31T03:28:03.815Z,1011.11
2018-05-31T03:29:03.776Z,1011.13
2018-05-31T03:30:03.788Z,1011.18
2018-05-31T03:31:03.697Z,1011.20
2018-05-31T03:32:03.658Z,1011.21
2018-05-31T03:33:03.618Z,1011.20
2018-05-31T03:34:03.578Z,1011.20
2018-05-31T03:35:03.540Z,1011.18
2018-05-31T03:36:03.499Z,1011.17
2018-05-31T03:37:03.466Z,1011.18
2018-05-31T03:38:03.420Z,1011.18
2018-05-31T03:39:03.380Z,1011.17
2018-05-31T03:40:03.340Z,1011.20
2018-05-31T03:41:03.301Z,1011.16
2018-05-31T03:42:03.262Z,1011.19
2018-05-31T03:43:03.221Z,1011.21
2018-05-31T03:44:03.182Z,1011.17
2018-05-31T03:45:03.146Z,1011.18
2018-05-31T03:46:03.104Z,1011.12
2018-05-31T03:47:03.063Z,1011.13
2018-05-31T03:48:03.074Z,1011.10
2018-05-31T03:49:02.985Z,1011.11
2018-05-31T03:50:02.945Z,1011.12
2018-05-31T03:51:02.905Z,1011.12
2018-05-31T03:52:02.866Z,1011.09
2018-05-31T03:53:02.827Z,1011.09
2018-05-31T03:54:02.788Z,1011.09
2018-05-31T03:55:02.746Z,1011.09
2018-05-31T03:56:02.708Z,1011.11
2018-05-31T03:57:02.669Z,1011.09
2018-05-31T03:58:02.628Z,1011.08
2018-05-31T03:59:02.589Z,1011.08
2018-05-31T04:00:02.549Z,1011.10
2018-05-31T04:01:02.510Z,1011.10
2018-05-31T04:02:02.472Z,1011.09
2018-05-31T04:03:02.430Z,1011.15
2018-05-31T04:04:02.391Z,1011.15
2018-05-31T04:05:02.351Z,1011.16
2018-05-31T04:06:02.311Z,1011.14
2018-05-31T04:07:02.275Z,1011.14
2018-05-31T04:08:02.232Z,1011.10
2018-05-31T04:09:02.193Z,1011.09
2018-05-31T04:10:02.157Z,1011.12
2018-05-31T04:11:02.113Z,1011.09
2018-05-31T04:12:02.074Z,1011.13
2018-05-31T04:13:02.059Z,1011.10
2018-05-31T04:14:01.997Z,1011.07
2018-05-31T04:15:01.955Z,1011.10
2018-05-31T04:16:01.915Z,1011.08
2018-05-31T04:17:01.878Z,1011.06
2018-05-31T04:18:01.840Z,1011.06
2018-05-31T04:19:01.796Z,1011.07
2018-05-31T04:20:01.759Z,1011.06
2018-05-31T04:21:01.720Z,1011.06
2018-05-31T04:22:01.678Z,1011.10
2018-05-31T04:23:01.640Z,1011.10
2018-05-31T04:24:01.598Z,1011.16
2018-05-31T04:25:01.560Z,1011.17
2018-05-31T04:26:01.520Z,1011.18
2018-05-31T04:27:01.479Z,1011.19
2018-05-31T04:28:01.444Z,1011.18
2018-05-31T04:29:01.401Z,1011.17
2018-05-31T04:30:01.361Z,1011.17
2018-05-31T04:31:01.324Z,1011.18
2018-05-31T04:32:01.281Z,1011.18
2018-05-31T04:33:01.244Z,1011.18
2018-05-31T04:34:01.206Z,1011.18
2018-05-31T04:35:01.171Z,1011.17
2018-05-31T04:36:01.124Z,1011.16
2018-05-31T04:37:01.083Z,1011.18
2018-05-31T04:38:01.044Z,1011.21
2018-05-31T04:39:01.004Z,1011.22
2018-05-31T04:40:00.966Z,1011.22
2018-05-31T04:41:00.925Z,1011.24
2018-05-31T04:42:00.986Z,1011.25
2018-05-31T04:43:00.852Z,1011.25
2018-05-31T04:44:00.806Z,1011.21
2018-05-31T04:45:00.767Z,1011.24
2018-05-31T04:46:00.731Z,1011.27
2018-05-31T04:47:00.687Z,1011.23
2018-05-31T04:48:00.649Z,1011.24
2018-05-31T04:49:00.608Z,1011.26
2018-05-31T04:50:00.572Z,1011.26
2018-05-31T04:51:00.528Z,1011.23
2018-05-31T04:52:00.492Z,1011.25
2018-05-31T04:53:00.449Z,1011.27
2018-05-31T04:54:00.411Z,1011.23
2018-05-31T04:55:00.370Z,1011.24
2018-05-31T04:56:00.334Z,1011.25
2018-05-31T04:57:00.291Z,1011.27
2018-05-31T04:58:00.252Z,1011.27
2018-05-31T04:59:00.211Z,1011.28
2018-05-31T05:00:00.172Z,1011.28
2018-05-31T05:01:00.133Z,1011.29
2018-05-31T05:02:00.093Z,1011.28
2018-05-31T05:03:00.066Z,1011.31
2018-05-31T05:04:00.014Z,1011.30
2018-05-31T05:04:59.978Z,1011.28
2018-05-31T05:05:59.936Z,1011.32
2018-05-31T05:06:59.895Z,1011.32
2018-05-31T05:07:59.855Z,1011.34
2018-05-31T05:08:59.839Z,1011.34
2018-05-31T05:09:59.777Z,1011.36
2018-05-31T05:10:59.736Z,1011.37
2018-05-31T05:11:59.697Z,1011.40
2018-05-31T05:12:59.658Z,1011.42
2018-05-31T05:13:59.620Z,1011.43
2018-05-31T05:14:59.579Z,1011.46
2018-05-31T05:15:59.539Z,1011.45
2018-05-31T05:16:59.503Z,1011.48
2018-05-31T05:17:59.472Z,1011.46
2018-05-31T05:18:59.420Z,1011.51
2018-05-31T05:19:59.381Z,1011.52
2018-05-31T05:20:59.342Z,1011.51
2018-05-31T05:21:59.306Z,1011.49
2018-05-31T05:22:59.262Z,1011.51
2018-05-31T05:23:59.223Z,1011.49
2018-05-31T05:24:59.187Z,1011.49
2018-05-31T05:25:59.145Z,1011.51
2018-05-31T05:26:59.104Z,1011.48
2018-05-31T05:27:59.065Z,1011.51
2018-05-31T05:28:59.026Z,1011.50
2018-05-31T05:29:58.987Z,1011.53
2018-05-31T05:30:58.953Z,1011.47
2018-05-31T05:31:58.910Z,1011.53
2018-05-31T05:32:58.869Z,1011.49
2018-05-31T05:33:58.829Z,1011.52
2018-05-31T05:34:58.789Z,1011.52
2018-05-31T05:35:58.750Z,1011.50
2018-05-31T05:36:58.711Z,1011.52
2018-05-31T05:37:58.671Z,1011.53
2018-05-31T05:38:58.631Z,1011.52
2018-05-31T05:39:58.594Z,1011.53
2018-05-31T05:40:58.553Z,1011.54
2018-05-31T05:41:58.514Z,1011.56
2018-05-31T05:42:58.475Z,1011.60
2018-05-31T05:43:58.436Z,1011.63
2018-05-31T05:44:58.396Z,1011.58
2018-05-31T05:45:58.358Z,1011.58
2018-05-31T05:46:58.317Z,1011.56
2018-05-31T05:47:58.278Z,1011.56
2018-05-31T05:48:58.240Z,1011.55
2018-05-31T05:49:58.250Z,1011.57
2018-05-31T05:50:58.160Z,1011.59
2018-05-31T05:51:58.170Z,1011.57
2018-05-31T05:52:58.081Z,1011.56
2018-05-31T05:53:58.042Z,1011.61
2018-05-31T05:54:58.003Z,1011.61
2018-05-31T05:55:57.966Z,1011.64
2018-05-31T05:56:57.925Z,1011.66
2018-05-31T05:57:57.885Z,1011.65
2018-05-31T05:58:57.845Z,1011.71
2018-05-31T05:59:57.812Z,1011.67
2018-05-31T06:00:57.767Z,1011.67
2018-05-31T06:01:57.805Z,1011.70
2018-05-31T06:02:57.689Z,1011.74
2018-05-31T06:03:57.651Z,1011.74
2018-05-31T06:04:57.610Z,1011.76
2018-05-31T06:05:57.572Z,1011.74
2018-05-31T06:06:57.531Z,1011.75
2018-05-31T06:07:57.503Z,1011.81
2018-05-31T06:08:57.454Z,1011.60
2018-05-31T06:09:57.469Z,1011.61
2018-05-31T06:10:57.375Z,1011.63
2018-05-31T06:11:57.336Z,1011.63
2018-05-31T06:12:57.297Z,1011.63
2018-05-31T06:13:57.260Z,1011.70
2018-05-31T06:14:57.220Z,1011.68
2018-05-31T06:15:57.184Z,1011.71
2018-05-31T06:16:57.148Z,1011.69
2018-05-31T06:17:57.107Z,1011.73
2018-05-31T06:18:57.624Z,1011.72
2018-05-31T06:19:57.029Z,1011.70
2018-05-31T06:20:56.992Z,1011.77
2018-05-31T06:21:56.988Z,1011.73
2018-05-31T06:22:56.916Z,1011.73
2018-05-31T06:23:56.878Z,1011.75
2018-05-31T06:24:56.842Z,1011.75
2018-05-31T06:25:56.804Z,1011.75
2018-05-31T06:26:56.767Z,1011.77
2018-05-31T06:27:56.730Z,1011.77
2018-05-31T06:28:56.692Z,1011.76
2018-05-31T06:29:56.656Z,1011.78
2018-05-31T06:30:56.619Z,1011.80
2018-05-31T06:31:56.581Z,1011.76
2018-05-31T06:32:56.547Z,1011.83
2018-05-31T06:33:56.506Z,1011.80
2018-05-31T06:34:56.469Z,1011.80
2018-05-31T06:35:56.482Z,1011.81
2018-05-31T06:36:56.396Z,1011.81
2018-05-31T06:37:56.360Z,1011.80
2018-05-31T06:38:56.323Z,1011.75
2018-05-31T06:39:56.285Z,1011.77
2018-05-31T06:40:56.249Z,1011.78
2018-05-31T06:41:56.211Z,1011.75
2018-05-31T06:42:56.190Z,1011.72
2018-05-31T06:43:56.138Z,1011.73
2018-05-31T06:44:56.102Z,1011.71
2018-05-31T06:45:56.069Z,1011.68
2018-05-31T06:46:56.029Z,1011.71
2018-05-31T06:47:55.993Z,1011.77
2018-05-31T06:48:55.956Z,1011.73
2018-05-31T06:49:55.920Z,1011.73
2018-05-31T06:50:55.882Z,1011.77
2018-05-31T06:51:55.848Z,1011.78
2018-05-31T06:52:55.813Z,1011.75
2018-05-31T06:53:55.776Z,1011.75
2018-05-31T06:54:55.738Z,1011.78
2018-05-31T06:55:55.705Z,1011.86
2018-05-31T06:56:55.668Z,1011.87
2018-05-31T06:57:55.632Z,1011.83
2018-05-31T06:58:55.606Z,1011.86
2018-05-31T06:59:55.560Z,1011.83
2018-05-31T07:00:55.596Z,1011.83
2018-05-31T07:01:55.489Z,1011.83
2018-05-31T07:02:55.452Z,1011.83
2018-05-31T07:03:55.416Z,1011.84
2018-05-31T07:04:55.382Z,1011.81
2018-05-31T07:05:55.355Z,1011.85
2018-05-31T07:06:55.318Z,1011.85
2018-05-31T07:07:55.277Z,1011.90
2018-05-31T07:08:55.237Z,1012.35
2018-05-31T07:09:55.204Z,1012.38
2018-05-31T07:10:55.166Z,1012.34
2018-05-31T07:11:55.130Z,1012.32
2018-05-31T07:12:55.095Z,1012.37
2018-05-31T07:13:55.059Z,1012.45
2018-05-31T07:14:55.022Z,1012.56
2018-05-31T07:15:55.054Z,1012.72
2018-05-31T07:16:54.950Z,1012.78
2018-05-31T07:17:54.914Z,1012.85
2018-05-31T07:18:54.877Z,1012.97
2018-05-31T07:19:54.845Z,1013.06
2018-05-31T07:20:54.805Z,1013.08
2018-05-31T07:21:54.767Z,1013.17
2018-05-31T07:22:54.730Z,1013.24
2018-05-31T07:23:54.696Z,1013.28
2018-05-31T07:24:54.659Z,1013.31
2018-05-31T07:25:54.629Z,1013.36
2018-05-31T07:26:54.585Z,1013.35
2018-05-31T07:27:54.551Z,1013.23
2018-05-31T07:28:54.513Z,1013.18
2018-05-31T07:29:54.482Z,1013.23
2018-05-31T07:30:54.440Z,1013.23
2018-05-31T07:31:54.408Z,1013.18
2018-05-31T07:32:54.368Z,1013.21
2018-05-31T07:33:54.333Z,1013.40
2018-05-31T07:34:54.295Z,1013.46
2018-05-31T07:35:54.258Z,1013.29
2018-05-31T07:36:54.222Z,1012.87
2018-05-31T07:37:54.184Z,1012.72
2018-05-31T07:38:54.149Z,1012.73
2018-05-31T07:39:54.111Z,1012.72
2018-05-31T07:40:54.075Z,1012.86
2018-05-31T07:41:54.040Z,1012.96
2018-05-31T07:42:54.003Z,1013.02
2018-05-31T07:43:53.966Z,1013.04
2018-05-31T07:44:53.931Z,1012.98
2018-05-31T07:45:53.896Z,1013.06
2018-05-31T07:46:53.858Z,1013.03
2018-05-31T07:47:53.822Z,1012.85
2018-05-31T07:48:53.787Z,1012.83
2018-05-31T07:49:53.749Z,1012.77
2018-05-31T07:50:53.714Z,1012.79
2018-05-31T07:51:53.678Z,1012.69
2018-05-31T07:52:53.642Z,1012.61
2018-05-31T07:53:53.607Z,1012.58
2018-05-31T07:54:53.571Z,1012.57
2018-05-31T07:55:53.534Z,1012.56
2018-05-31T07:56:53.499Z,1012.60
2018-05-31T07:57:53.463Z,1012.58
2018-05-31T07:58:53.477Z,1012.61
2018-05-31T07:59:53.391Z,1012.60
2018-05-31T08:00:53.356Z,1012.67
2018-05-31T08:01:53.321Z,1012.86
2018-05-31T08:02:53.283Z,1012.79
2018-05-31T08:03:53.250Z,1012.70
2018-05-31T08:04:53.214Z,1012.66
2018-05-31T08:05:53.198Z,1012.59
2018-05-31T08:06:53.140Z,1012.56
2018-05-31T08:07:53.107Z,1012.61
2018-05-31T08:08:53.071Z,1012.49
2018-05-31T08:09:53.043Z,1012.51
2018-05-31T08:10:53.001Z,1012.60
2018-05-31T08:11:52.964Z,1012.70
2018-05-31T08:12:52.932Z,1012.76
2018-05-31T08:13:52.894Z,1012.86
2018-05-31T08:14:52.859Z,1012.83
2018-05-31T08:15:52.823Z,1012.82
2018-05-31T08:16:52.788Z,1012.80
2018-05-31T08:17:52.753Z,1012.85
2018-05-31T08:18:52.717Z,1012.81
2018-05-31T08:19:52.683Z,1012.83
2018-05-31T08:20:52.647Z,1013.00
2018-05-31T08:21:52.613Z,1012.97
2018-05-31T08:22:52.577Z,1012.91
2018-05-31T08:23:52.546Z,1013.01
2018-05-31T08:24:52.507Z,1013.02
2018-05-31T08:25:52.472Z,1012.76
2018-05-31T08:26:52.437Z,1012.65
2018-05-31T08:27:52.402Z,1012.62
2018-05-31T08:28:52.374Z,1012.63
2018-05-31T08:29:52.334Z,1012.64
2018-05-31T08:30:52.297Z,1012.60
2018-05-31T08:31:52.263Z,1012.56
2018-05-31T08:32:52.228Z,1012.61
2018-05-31T08:33:52.194Z,1012.67
2018-05-31T08:34:52.158Z,1012.66
2018-05-31T08:35:52.127Z,1012.63
2018-05-31T08:36:52.090Z,1012.68
2018-05-31T08:37:52.055Z,1012.68
2018-05-31T08:38:52.074Z,1012.68
2018-05-31T08:39:51.985Z,1012.68
2018-05-31T08:40:51.951Z,1012.74
2018-05-31T08:41:51.918Z,1012.81
2018-05-31T08:42:51.882Z,1012.76
2018-05-31T08:43:51.848Z,1012.68
2018-05-31T08:44:51.814Z,1012.66
2018-05-31T08:45:51.780Z,1012.52
2018-05-31T08:46:51.745Z,1012.49
2018-05-31T08:47:51.711Z,1012.44
2018-05-31T08:48:51.683Z,1012.41
2018-05-31T08:49:51.645Z,1012.35
2018-05-31T08:50:51.608Z,1012.25
2018-05-31T08:51:51.574Z,1012.24
2018-05-31T08:52:51.541Z,1012.27
2018-05-31T08:53:51.507Z,1012.23
2018-05-31T08:54:51.472Z,1012.24
2018-05-31T08:55:51.439Z,1012.20
2018-05-31T08:56:51.405Z,1012.15
2018-05-31T08:57:51.373Z,1012.21
2018-05-31T08:58:51.337Z,1012.20
2018-05-31T08:59:51.309Z,1012.17
2018-05-31T09:00:51.269Z,1012.18
2018-05-31T09:01:51.235Z,1012.25
2018-05-31T09:02:51.204Z,1012.23
2018-05-31T09:03:51.171Z,1012.17
2018-05-31T09:04:51.134Z,1012.17
2018-05-31T09:05:51.103Z,1012.22
2018-05-31T09:06:51.067Z,1012.18
2018-05-31T09:07:51.033Z,1012.19
2018-05-31T09:08:50.999Z,1012.23
2018-05-31T09:09:50.968Z,1012.28
2018-05-31T09:10:50.937Z,1012.19
2018-05-31T09:11:50.897Z,1012.16
2018-05-31T09:12:50.866Z,1012.09
2018-05-31T09:13:50.831Z,1012.09
2018-05-31T09:14:50.801Z,1012.15
2018-05-31T09:15:50.769Z,1012.15
2018-05-31T09:16:50.741Z,1012.14
2018-05-31T09:17:50.697Z,1012.05
2018-05-31T09:18:50.664Z,1012.01
2018-05-31T09:19:50.631Z,1011.95
2018-05-31T09:20:50.596Z,1011.99
2018-05-31T09:21:50.564Z,1011.99
2018-05-31T09:22:50.530Z,1011.95
2018-05-31T09:23:50.497Z,1011.93
2018-05-31T09:24:50.469Z,1011.93
2018-05-31T09:25:50.437Z,1011.91
2018-05-31T09:26:50.397Z,1011.91
2018-05-31T09:27:50.366Z,1011.96
2018-05-31T09:28:50.330Z,1011.95
2018-05-31T09:29:50.297Z,1011.92
2018-05-31T09:30:50.264Z,1011.92
2018-05-31T09:34:50.130Z,1011.86
2018-05-31T09:35:50.097Z,1011.82
2018-05-31T09:36:50.064Z,1011.80
2018-05-31T09:37:50.031Z,1011.82
2018-05-31T09:38:49.996Z,1011.88
2018-05-31T09:39:49.964Z,1011.79
2018-05-31T09:40:49.933Z,1011.82
2018-05-31T09:41:49.898Z,1011.71
2018-05-31T09:42:49.862Z,1011.78
2018-05-31T09:43:49.830Z,1011.79
2018-05-31T09:44:49.797Z,1011.75
2018-05-31T09:45:49.768Z,1011.76
2018-05-31T09:46:49.728Z,1011.71
2018-05-31T09:47:49.694Z,1011.68
2018-05-31T09:48:49.661Z,1011.68
2018-05-31T09:49:49.629Z,1011.64
2018-05-31T09:50:49.591Z,1011.64
2018-05-31T09:51:49.556Z,1011.59
2018-05-31T09:52:49.522Z,1011.69
2018-05-31T09:53:49.487Z,1011.65
2018-05-31T09:54:49.451Z,1011.69
2018-05-31T09:55:49.415Z,1011.63
2018-05-31T09:56:49.381Z,1011.62
2018-05-31T09:57:49.345Z,1011.68
2018-05-31T09:58:49.309Z,1011.66
2018-05-31T09:59:49.273Z,1011.63
2018-05-31T10:00:49.259Z,1011.59
2018-05-31T10:01:49.241Z,1011.54
2018-05-31T10:02:49.166Z,1011.57
2018-05-31T10:03:49.135Z,1011.58
2018-05-31T10:04:49.095Z,1011.56
2018-05-31T10:05:49.060Z,1011.53
2018-05-31T10:06:49.024Z,1011.51
2018-05-31T10:07:48.987Z,1011.64
2018-05-31T10:08:48.951Z,1011.63
2018-05-31T10:09:48.916Z,1011.60
2018-05-31T10:10:48.878Z,1011.64
2018-05-31T10:11:48.843Z,1011.52
2018-05-31T10:12:48.807Z,1011.54
2018-05-31T10:13:48.770Z,1011.53
2018-05-31T10:14:48.733Z,1011.55
2018-05-31T10:15:48.696Z,1011.52
2018-05-31T10:16:48.660Z,1011.54
2018-05-31T10:17:48.624Z,1011.45
2018-05-31T10:18:48.588Z,1011.46
2018-05-31T10:19:48.551Z,1011.48
2018-05-31T10:20:48.521Z,1011.37
2018-05-31T10:21:48.480Z,1011.58
2018-05-31T10:22:48.441Z,1011.58
2018-05-31T10:23:48.404Z,1011.51
2018-05-31T10:24:48.366Z,1011.48
2018-05-31T10:25:48.331Z,1011.45
2018-05-31T10:26:48.294Z,1011.42
2018-05-31T10:27:48.257Z,1011.43
2018-05-31T10:28:48.220Z,1011.40
2018-05-31T10:29:48.183Z,1011.54
2018-05-31T10:30:48.149Z,1011.41
2018-05-31T10:31:48.110Z,1011.38
2018-05-31T10:32:48.072Z,1011.39
2018-05-31T10:33:48.037Z,1011.41
2018-05-31T10:34:47.999Z,1011.40
2018-05-31T10:35:47.962Z,1011.48
2018-05-31T10:36:47.926Z,1011.39
2018-05-31T10:37:47.888Z,1011.29
2018-05-31T10:38:47.852Z,1011.22
2018-05-31T10:39:47.818Z,1011.25
2018-05-31T10:40:47.777Z,1011.26
2018-05-31T10:41:47.741Z,1011.20
2018-05-31T10:42:47.703Z,1011.20
2018-05-31T10:43:47.666Z,1011.22
2018-05-31T10:44:47.629Z,1011.26
2018-05-31T10:45:47.595Z,1011.16
2018-05-31T10:46:47.561Z,1011.12
2018-05-31T10:47:47.518Z,1011.16
2018-05-31T10:48:47.481Z,1011.25
2018-05-31T10:49:47.445Z,1011.28
2018-05-31T10:50:47.407Z,1011.26
2018-05-31T10:51:47.370Z,1011.17
2018-05-31T10:52:47.333Z,1011.22
2018-05-31T10:53:47.350Z,1011.20
2018-05-31T10:54:47.259Z,1011.17
2018-05-31T10:55:47.225Z,1011.19
2018-05-31T10:56:47.184Z,1011.23
2018-05-31T10:57:47.151Z,1011.27
2018-05-31T10:58:47.109Z,1011.17
2018-05-31T10:59:47.072Z,1011.14
2018-05-31T11:00:47.035Z,1011.17
2018-05-31T11:01:46.999Z,1011.15
2018-05-31T11:02:46.961Z,1011.19
2018-05-31T11:03:46.928Z,1011.16
2018-05-31T11:04:46.887Z,1011.18
2018-05-31T11:05:46.853Z,1011.11
2018-05-31T11:06:46.831Z,1011.04
2018-05-31T11:07:46.779Z,1010.96
2018-05-31T11:08:46.737Z,1010.98
2018-05-31T11:09:46.706Z,1011.04
2018-05-31T11:10:46.662Z,1011.05
2018-05-31T11:11:46.626Z,1011.14
2018-05-31T11:12:46.589Z,1011.08
2018-05-31T11:13:46.552Z,1011.06
2018-05-31T11:14:46.514Z,1011.08
2018-05-31T11:15:46.483Z,1011.06
2018-05-31T11:16:46.440Z,1011.11
2018-05-31T11:17:46.402Z,1011.04
2018-05-31T11:18:46.364Z,1011.07
2018-05-31T11:19:46.334Z,1011.08
2018-05-31T11:20:46.290Z,1011.10
2018-05-31T11:21:46.282Z,1011.05
2018-05-31T11:22:46.215Z,1011.00
2018-05-31T11:23:46.178Z,1011.02
2018-05-31T11:24:46.142Z,1011.06
2018-05-31T11:25:46.104Z,1011.01
2018-05-31T11:26:46.066Z,1011.05
2018-05-31T11:27:46.029Z,1010.97
2018-05-31T11:28:45.992Z,1010.95
2018-05-31T11:29:45.956Z,1010.94
2018-05-31T11:30:45.917Z,1010.96
2018-05-31T11:31:45.879Z,1010.93
2018-05-31T11:32:45.843Z,1010.93
2018-05-31T11:33:45.804Z,1010.88
2018-05-31T11:34:45.776Z,1010.90
2018-05-31T11:35:45.732Z,1010.91
2018-05-31T11:36:45.693Z,1010.86
2018-05-31T11:37:45.656Z,1010.91
2018-05-31T11:38:45.666Z,1010.93
2018-05-31T11:39:45.630Z,1010.96
2018-05-31T11:40:45.543Z,1010.87
2018-05-31T11:41:45.505Z,1010.82
2018-05-31T11:42:45.475Z,1010.81
2018-05-31T11:43:45.431Z,1010.85
2018-05-31T11:44:45.394Z,1010.80
2018-05-31T11:45:45.357Z,1010.79
2018-05-31T11:46:45.318Z,1010.78
2018-05-31T11:47:45.281Z,1010.82
2018-05-31T11:48:45.244Z,1010.76
2018-05-31T11:49:45.207Z,1010.79
2018-05-31T11:50:45.169Z,1010.79
2018-05-31T11:51:45.132Z,1010.79
2018-05-31T11:52:45.095Z,1010.73
2018-05-31T11:53:45.057Z,1010.77
2018-05-31T11:54:45.019Z,1010.77
2018-05-31T11:55:44.981Z,1010.81
2018-05-31T11:56:44.947Z,1010.79
2018-05-31T11:57:44.907Z,1010.79
2018-05-31T11:58:44.869Z,1010.76
2018-05-31T11:59:44.831Z,1010.79
2018-05-31T12:00:44.794Z,1010.73
2018-05-31T12:01:44.772Z,1010.72
2018-05-31T12:02:44.719Z,1010.65
2018-05-31T12:03:44.731Z,1010.67
2018-05-31T12:04:44.647Z,1010.63
2018-05-31T12:05:44.614Z,1010.65
2018-05-31T12:06:44.569Z,1010.73
2018-05-31T12:07:44.531Z,1010.74